sensor_id;sensor_type;location;lat;lon;timestamp;pressure;altitude;pressure_sealevel;temperature;humidity
46448;BME280;32145;50.390;30.778;2023-01-28T00:00:24;100478.38;;;-3.96;80.15
46448;BME280;32145;50.390;30.778;2023-01-28T00:03:08;100482.00;;;-3.97;80.02
46448;BME280;32145;50.390;30.778;2023-01-28T00:06:01;100480.19;;;-3.97;80.52
46448;BME280;32145;50.390;30.778;2023-01-28T00:08:45;100476.09;;;-4.01;80.03
46448;BME280;32145;50.390;30.778;2023-01-28T00:11:28;100475.25;;;-4.02;80.10
46448;BME280;32145;50.390;30.778;2023-01-28T00:14:14;100472.13;;;-4.07;80.21
46448;BME280;32145;50.390;30.778;2023-01-28T00:16:58;100473.09;;;-4.08;80.22
46448;BME280;32145;50.390;30.778;2023-01-28T00:19:42;100468.78;;;-4.09;80.10
46448;BME280;32145;50.390;30.778;2023-01-28T00:22:26;100468.50;;;-4.06;80.18
46448;BME280;32145;50.390;30.778;2023-01-28T00:25:10;100473.56;;;-4.03;80.71
46448;BME280;32145;50.390;30.778;2023-01-28T00:27:54;100469.94;;;-4.02;80.40
46448;BME280;32145;50.390;30.778;2023-01-28T00:30:39;100466.34;;;-4.01;80.25
46448;BME280;32145;50.390;30.778;2023-01-28T00:33:23;100474.19;;;-3.99;80.15
46448;BME280;32145;50.390;30.778;2023-01-28T00:36:07;100471.53;;;-3.99;80.51
46448;BME280;32145;50.390;30.778;2023-01-28T00:38:53;100463.59;;;-3.99;80.54
46448;BME280;32145;50.390;30.778;2023-01-28T00:41:37;100474.19;;;-3.99;80.33
46448;BME280;32145;50.390;30.778;2023-01-28T00:44:22;100464.66;;;-4.02;80.26
46448;BME280;32145;50.390;30.778;2023-01-28T00:47:07;100479.84;;;-4.04;80.43
46448;BME280;32145;50.390;30.778;2023-01-28T00:49:51;100475.41;;;-4.03;80.44
46448;BME280;32145;50.390;30.778;2023-01-28T00:52:35;100478.16;;;-4.05;80.51
46448;BME280;32145;50.390;30.778;2023-01-28T00:55:19;100472.25;;;-4.08;80.00
46448;BME280;32145;50.390;30.778;2023-01-28T00:58:03;100472.66;;;-4.13;80.46
46448;BME280;32145;50.390;30.778;2023-01-28T01:00:47;100472.88;;;-4.16;80.27
46448;BME280;32145;50.390;30.778;2023-01-28T01:03:32;100467.59;;;-4.16;80.05
46448;BME280;32145;50.390;30.778;2023-01-28T01:06:16;100467.34;;;-4.13;80.58
46448;BME280;32145;50.390;30.778;2023-01-28T01:09:00;100470.69;;;-4.11;80.54
46448;BME280;32145;50.390;30.778;2023-01-28T01:11:45;100461.78;;;-4.10;80.61
46448;BME280;32145;50.390;30.778;2023-01-28T01:14:29;100459.13;;;-4.10;80.48
46448;BME280;32145;50.390;30.778;2023-01-28T01:17:15;100469.72;;;-4.10;80.34
46448;BME280;32145;50.390;30.778;2023-01-28T01:20:00;100459.13;;;-4.10;80.19
46448;BME280;32145;50.390;30.778;2023-01-28T01:22:44;100472.66;;;-4.13;79.94
46448;BME280;32145;50.390;30.778;2023-01-28T01:25:29;100460.63;;;-4.17;80.23
46448;BME280;32145;50.390;30.778;2023-01-28T01:28:14;100464.09;;;-4.17;80.29
46448;BME280;32145;50.390;30.778;2023-01-28T01:30:58;100446.41;;;-4.16;80.20
46448;BME280;32145;50.390;30.778;2023-01-28T01:33:44;100455.31;;;-4.17;80.58
46448;BME280;32145;50.390;30.778;2023-01-28T01:36:30;100458.66;;;-4.15;80.48
46448;BME280;32145;50.390;30.778;2023-01-28T01:39:14;100461.06;;;-4.12;80.30
46448;BME280;32145;50.390;30.778;2023-01-28T01:41:58;100454.09;;;-4.13;80.28
46448;BME280;32145;50.390;30.778;2023-01-28T01:44:54;100451.69;;;-4.16;80.23
46448;BME280;32145;50.390;30.778;2023-01-28T01:47:43;100449.41;;;-4.21;80.43
46448;BME280;32145;50.390;30.778;2023-01-28T01:50:31;100449.53;;;-4.22;80.51
46448;BME280;32145;50.390;30.778;2023-01-28T01:53:19;100448.59;;;-4.21;80.68
46448;BME280;32145;50.390;30.778;2023-01-28T01:56:07;100447.63;;;-4.20;80.76
46448;BME280;32145;50.390;30.778;2023-01-28T01:58:53;100445.66;;;-4.18;80.38
46448;BME280;32145;50.390;30.778;2023-01-28T02:01:40;100444.97;;;-4.20;80.23
46448;BME280;32145;50.390;30.778;2023-01-28T02:04:28;100438.94;;;-4.22;80.42
46448;BME280;32145;50.390;30.778;2023-01-28T02:07:14;100433.63;;;-4.22;80.46
46448;BME280;32145;50.390;30.778;2023-01-28T02:10:01;100432.69;;;-4.21;80.49
46448;BME280;32145;50.390;30.778;2023-01-28T02:12:48;100436.06;;;-4.19;80.30
46448;BME280;32145;50.390;30.778;2023-01-28T02:15:34;100432.44;;;-4.18;80.49
46448;BME280;32145;50.390;30.778;2023-01-28T02:18:18;100432.91;;;-4.13;80.57
46448;BME280;32145;50.390;30.778;2023-01-28T02:21:23;100431.72;;;-4.09;80.56
46448;BME280;32145;50.390;30.778;2023-01-28T02:24:46;100430.72;;;-4.08;80.48
46448;BME280;32145;50.390;30.778;2023-01-28T02:27:49;100435.56;;;-4.13;80.04
46448;BME280;32145;50.390;30.778;2023-01-28T02:30:36;100436.78;;;-4.17;80.55
46448;BME280;32145;50.390;30.778;2023-01-28T02:33:28;100434.38;;;-4.20;80.43
46448;BME280;32145;50.390;30.778;2023-01-28T02:36:17;100432.69;;;-4.21;80.36
46448;BME280;32145;50.390;30.778;2023-01-28T02:39:08;100438.94;;;-4.22;80.38
46448;BME280;32145;50.390;30.778;2023-01-28T02:41:58;100434.72;;;-4.25;80.09
46448;BME280;32145;50.390;30.778;2023-01-28T02:44:46;100429.31;;;-4.23;80.37
46448;BME280;32145;50.390;30.778;2023-01-28T02:47:30;100436.28;;;-4.22;80.64
46448;BME280;32145;50.390;30.778;2023-01-28T02:50:17;100440.38;;;-4.18;80.21
46448;BME280;32145;50.390;30.778;2023-01-28T02:53:13;100435.81;;;-4.16;80.33
46448;BME280;32145;50.390;30.778;2023-01-28T02:56:07;100439.44;;;-4.17;80.47
46448;BME280;32145;50.390;30.778;2023-01-28T02:58:59;100436.16;;;-4.21;80.10
46448;BME280;32145;50.390;30.778;2023-01-28T03:01:47;100430.16;;;-4.23;80.43
46448;BME280;32145;50.390;30.778;2023-01-28T03:04:37;100432.69;;;-4.21;80.15
46448;BME280;32145;50.390;30.778;2023-01-28T03:07:26;100430.88;;;-4.21;80.19
46448;BME280;32145;50.390;30.778;2023-01-28T03:10:15;100431.84;;;-4.22;80.17
46448;BME280;32145;50.390;30.778;2023-01-28T03:13:02;100422.09;;;-4.21;80.21
46448;BME280;32145;50.390;30.778;2023-01-28T03:15:47;100420.53;;;-4.24;80.25
46448;BME280;32145;50.390;30.778;2023-01-28T03:18:37;100420.41;;;-4.22;80.50
46448;BME280;32145;50.390;30.778;2023-01-28T03:21:26;100419.59;;;-4.23;80.40
46448;BME280;32145;50.390;30.778;2023-01-28T03:24:15;100411.75;;;-4.24;80.28
46448;BME280;32145;50.390;30.778;2023-01-28T03:27:05;100419.59;;;-4.23;80.40
46448;BME280;32145;50.390;30.778;2023-01-28T03:29:50;100420.41;;;-4.22;80.21
46448;BME280;32145;50.390;30.778;2023-01-28T03:32:37;100422.34;;;-4.24;80.04
46448;BME280;32145;50.390;30.778;2023-01-28T03:35:27;100418.97;;;-4.27;79.79
46448;BME280;32145;50.390;30.778;2023-01-28T03:38:12;100417.06;;;-4.24;79.61
46448;BME280;32145;50.390;30.778;2023-01-28T03:40:58;100424.25;;;-4.27;80.27
46448;BME280;32145;50.390;30.778;2023-01-28T03:43:45;100424.16;;;-4.25;80.42
46448;BME280;32145;50.390;30.778;2023-01-28T03:46:29;100424.03;;;-4.23;80.20
46448;BME280;32145;50.390;30.778;2023-01-28T03:49:13;100418.38;;;-4.19;80.49
46448;BME280;32145;50.390;30.778;2023-01-28T03:51:59;100436.63;;;-4.16;80.22
46448;BME280;32145;50.390;30.778;2023-01-28T03:54:43;100429.41;;;-4.14;80.38
46448;BME280;32145;50.390;30.778;2023-01-28T03:57:27;100436.78;;;-4.17;80.00
46448;BME280;32145;50.390;30.778;2023-01-28T04:00:13;100443.28;;;-4.21;80.22
46448;BME280;32145;50.390;30.778;2023-01-28T09:21:05;100438.09;;;-3.79;78.60
46448;BME280;32145;50.390;30.778;2023-01-28T09:23:49;100435.34;;;-3.77;78.90
46448;BME280;32145;50.390;30.778;2023-01-28T09:26:33;100437.28;;;-3.79;78.62
46448;BME280;32145;50.390;30.778;2023-01-28T09:29:17;100435.56;;;-3.80;78.25
46448;BME280;32145;50.390;30.778;2023-01-28T09:32:01;100429.69;;;-3.84;78.12
46448;BME280;32145;50.390;30.778;2023-01-28T09:34:45;100419.22;;;-3.85;78.34
46448;BME280;32145;50.390;30.778;2023-01-28T09:37:30;100417.16;;;-3.82;78.56
46448;BME280;32145;50.390;30.778;2023-01-28T09:40:19;100402.44;;;-3.75;78.31
46448;BME280;32145;50.390;30.778;2023-01-28T09:43:27;100409.88;;;-3.68;78.22
46448;BME280;32145;50.390;30.778;2023-01-28T09:46:19;100398.38;;;-3.57;77.58
46448;BME280;32145;50.390;30.778;2023-01-28T09:49:14;100401.75;;;-3.55;77.31
46448;BME280;32145;50.390;30.778;2023-01-28T09:52:00;100394.94;;;-3.48;77.59
46448;BME280;32145;50.390;30.778;2023-01-28T09:54:49;100391.53;;;-3.39;77.48
46448;BME280;32145;50.390;30.778;2023-01-28T09:57:38;100387.97;;;-3.28;76.68
46448;BME280;32145;50.390;30.778;2023-01-28T10:00:29;100384.63;;;-3.30;76.34
46448;BME280;32145;50.390;30.778;2023-01-28T10:03:31;100384.63;;;-3.30;75.99
46448;BME280;32145;50.390;30.778;2023-01-28T10:06:23;100388.53;;;-3.24;76.62
46448;BME280;32145;50.390;30.778;2023-01-28T10:09:20;100392.66;;;-3.20;75.72
46448;BME280;32145;50.390;30.778;2023-01-28T10:12:39;100389.84;;;-3.18;75.65
46448;BME280;32145;50.390;30.778;2023-01-28T10:18:47;100379.16;;;-3.07;75.92
46448;BME280;32145;50.390;30.778;2023-01-28T10:21:36;100376.97;;;-3.02;75.57
46448;BME280;32145;50.390;30.778;2023-01-28T10:24:26;100385.34;;;-2.96;75.32
46448;BME280;32145;50.390;30.778;2023-01-28T10:27:16;100376.16;;;-2.92;74.67
46448;BME280;32145;50.390;30.778;2023-01-28T10:30:16;100368.50;;;-2.86;74.76
46448;BME280;32145;50.390;30.778;2023-01-28T10:33:02;100373.03;;;-2.76;74.72
46448;BME280;32145;50.390;30.778;2023-01-28T10:35:48;100366.59;;;-2.74;74.42
46448;BME280;32145;50.390;30.778;2023-01-28T10:38:32;100372.59;;;-2.72;73.65
46448;BME280;32145;50.390;30.778;2023-01-28T10:41:20;100374.28;;;-2.70;74.26
46448;BME280;32145;50.390;30.778;2023-01-28T10:44:10;100364.38;;;-2.68;73.50
46448;BME280;32145;50.390;30.778;2023-01-28T10:47:01;100359.34;;;-2.72;73.32
46448;BME280;32145;50.390;30.778;2023-01-28T10:49:49;100346.91;;;-2.71;73.64
46448;BME280;32145;50.390;30.778;2023-01-28T10:52:35;100344.09;;;-2.79;73.52
46448;BME280;32145;50.390;30.778;2023-01-28T10:55:20;100346.88;;;-2.81;73.79
46448;BME280;32145;50.390;30.778;2023-01-28T10:58:12;100337.97;;;-2.70;73.73
46448;BME280;32145;50.390;30.778;2023-01-28T11:01:02;100332.13;;;-2.64;73.06
46448;BME280;32145;50.390;30.778;2023-01-28T11:03:55;100325.97;;;-2.64;72.99
46448;BME280;32145;50.390;30.778;2023-01-28T11:06:40;100332.13;;;-2.64;72.83
46448;BME280;32145;50.390;30.778;2023-01-28T11:09:27;100331.28;;;-2.64;73.22
46448;BME280;32145;50.390;30.778;2023-01-28T11:12:16;100328.78;;;-2.56;72.84
46448;BME280;32145;50.390;30.778;2023-01-28T11:15:02;100303.38;;;-2.49;73.06
46448;BME280;32145;50.390;30.778;2023-01-28T11:17:49;100309.22;;;-2.45;72.52
46448;BME280;32145;50.390;30.778;2023-01-28T11:20:40;100309.53;;;-2.38;72.45
46448;BME280;32145;50.390;30.778;2023-01-28T11:23:27;100312.03;;;-2.37;72.57
46448;BME280;32145;50.390;30.778;2023-01-28T11:26:15;100317.78;;;-2.31;72.08
46448;BME280;32145;50.390;30.778;2023-01-28T11:29:00;100315.69;;;-2.28;71.96
46448;BME280;32145;50.390;30.778;2023-01-28T11:31:44;100318.63;;;-2.21;72.33
46448;BME280;32145;50.390;30.778;2023-01-28T11:34:33;100319.06;;;-2.16;71.83
46448;BME280;32145;50.390;30.778;2023-01-28T11:37:20;100311.63;;;-2.12;72.14
46448;BME280;32145;50.390;30.778;2023-01-28T11:40:15;100310.38;;;-2.08;71.94
46448;BME280;32145;50.390;30.778;2023-01-28T11:42:59;100309.25;;;-2.05;71.59
46448;BME280;32145;50.390;30.778;2023-01-28T11:45:50;100319.06;;;-2.06;71.32
46448;BME280;32145;50.390;30.778;2023-01-28T11:48:41;100302.81;;;-2.03;71.33
46448;BME280;32145;50.390;30.778;2023-01-28T11:51:36;100296.41;;;-1.90;71.66
46448;BME280;32145;50.390;30.778;2023-01-28T11:54:32;100305.03;;;-1.78;71.70
46448;BME280;32145;50.390;30.778;2023-01-28T11:57:23;100295.41;;;-1.79;71.28
46448;BME280;32145;50.390;30.778;2023-01-28T12:00:26;100291.06;;;-1.80;70.91
46448;BME280;32145;50.390;30.778;2023-01-28T12:03:25;100292.47;;;-1.76;70.97
46448;BME280;32145;50.390;30.778;2023-01-28T12:06:23;100285.72;;;-1.71;71.10
46448;BME280;32145;50.390;30.778;2023-01-28T12:09:19;100285.53;;;-1.59;71.22
46448;BME280;32145;50.390;30.778;2023-01-28T12:12:19;100281.91;;;-1.48;70.79
46448;BME280;32145;50.390;30.778;2023-01-28T12:15:22;100278.66;;;-1.42;70.60
46448;BME280;32145;50.390;30.778;2023-01-28T12:18:17;100292.09;;;-1.44;70.49
46448;BME280;32145;50.390;30.778;2023-01-28T12:21:04;100282.00;;;-1.40;70.37
46448;BME280;32145;50.390;30.778;2023-01-28T12:24:01;100281.88;;;-1.38;70.14
46448;BME280;32145;50.390;30.778;2023-01-28T12:26:50;100279.22;;;-1.38;69.73
46448;BME280;32145;50.390;30.778;2023-01-28T12:29:43;100278.91;;;-1.35;70.01
46448;BME280;32145;50.390;30.778;2023-01-28T12:32:43;100282.66;;;-1.28;69.70
46448;BME280;32145;50.390;30.778;2023-01-28T12:35:42;100280.28;;;-1.21;69.65
46448;BME280;32145;50.390;30.778;2023-01-28T12:38:37;100273.25;;;-1.22;68.97
46448;BME280;32145;50.390;30.778;2023-01-28T12:41:27;100278.16;;;-1.18;69.29
46448;BME280;32145;50.390;30.778;2023-01-28T12:44:16;100279.53;;;-1.13;69.27
46448;BME280;32145;50.390;30.778;2023-01-28T12:47:08;100271.25;;;-1.10;69.02
46448;BME280;32145;50.390;30.778;2023-01-28T12:49:55;100273.31;;;-1.04;69.04
46448;BME280;32145;50.390;30.778;2023-01-28T12:52:45;100268.09;;;-0.96;68.64
46448;BME280;32145;50.390;30.778;2023-01-28T12:55:38;100270.59;;;-0.94;68.54
46448;BME280;32145;50.390;30.778;2023-01-28T12:58:38;100275.09;;;-0.95;68.45
46448;BME280;32145;50.390;30.778;2023-01-28T13:01:26;100270.75;;;-0.96;68.24
46448;BME280;32145;50.390;30.778;2023-01-28T13:04:17;100270.06;;;-0.98;68.13
46448;BME280;32145;50.390;30.778;2023-01-28T13:07:10;100272.59;;;-0.96;68.08
46448;BME280;32145;50.390;30.778;2023-01-28T13:10:00;100268.94;;;-0.95;68.29
46448;BME280;32145;50.390;30.778;2023-01-28T13:12:46;100267.78;;;-0.93;68.50
46448;BME280;32145;50.390;30.778;2023-01-28T13:15:31;100273.81;;;-0.91;68.45
46448;BME280;32145;50.390;30.778;2023-01-28T13:18:34;100270.03;;;-0.88;68.25
46448;BME280;32145;50.390;30.778;2023-01-28T13:21:33;100272.53;;;-0.86;67.88
46448;BME280;32145;50.390;30.778;2023-01-28T13:24:29;100268.03;;;-0.86;67.91
46448;BME280;32145;50.390;30.778;2023-01-28T13:27:22;100273.34;;;-0.86;67.18
46448;BME280;32145;50.390;30.778;2023-01-28T13:30:25;100268.63;;;-0.92;67.01
46448;BME280;32145;50.390;30.778;2023-01-28T13:33:28;100271.44;;;-0.94;66.97
46448;BME280;32145;50.390;30.778;2023-01-28T13:36:23;100279.56;;;-0.95;67.38
46448;BME280;32145;50.390;30.778;2023-01-28T13:39:18;100269.50;;;-1.01;66.75
46448;BME280;32145;50.390;30.778;2023-01-28T13:42:10;100268.97;;;-1.05;66.77
46448;BME280;32145;50.390;30.778;2023-01-28T13:45:23;100268.97;;;-1.05;67.08
46448;BME280;32145;50.390;30.778;2023-01-28T13:48:20;100268.59;;;-1.10;66.94
46448;BME280;32145;50.390;30.778;2023-01-28T13:51:15;100268.19;;;-1.15;67.09
46448;BME280;32145;50.390;30.778;2023-01-28T13:54:03;100263.47;;;-1.22;67.51
46448;BME280;32145;50.390;30.778;2023-01-28T13:57:02;100268.38;;;-1.27;67.72
46448;BME280;32145;50.390;30.778;2023-01-28T13:59:53;100271.34;;;-1.30;67.52
46448;BME280;32145;50.390;30.778;2023-01-28T14:03:20;100273.56;;;-1.35;67.06
46448;BME280;32145;50.390;30.778;2023-01-28T14:06:28;100272.19;;;-1.39;67.40
46448;BME280;32145;50.390;30.778;2023-01-28T14:09:30;100274.47;;;-1.45;67.73
46448;BME280;32145;50.390;30.778;2023-01-28T14:12:37;100275.06;;;-1.51;67.46
46448;BME280;32145;50.390;30.778;2023-01-28T14:15:45;100279.25;;;-1.58;67.71
46448;BME280;32145;50.390;30.778;2023-01-28T14:18:34;100273.13;;;-1.69;67.91
46448;BME280;32145;50.390;30.778;2023-01-28T14:21:20;100265.88;;;-1.76;67.94
46448;BME280;32145;50.390;30.778;2023-01-28T14:24:05;100274.28;;;-1.81;67.92
46448;BME280;32145;50.390;30.778;2023-01-28T14:27:02;100269.50;;;-1.87;68.10
46448;BME280;32145;50.390;30.778;2023-01-28T14:30:02;100269.38;;;-1.96;68.20
46448;BME280;32145;50.390;30.778;2023-01-28T14:32:48;100270.25;;;-2.05;68.69
46448;BME280;32145;50.390;30.778;2023-01-28T14:35:34;100267.47;;;-2.13;68.73
46448;BME280;32145;50.390;30.778;2023-01-28T14:38:21;100280.34;;;-2.18;68.18
46448;BME280;32145;50.390;30.778;2023-01-28T14:41:08;100273.91;;;-2.26;69.19
46448;BME280;32145;50.390;30.778;2023-01-28T14:43:55;100278.94;;;-2.33;68.57
46448;BME280;32145;50.390;30.778;2023-01-28T14:46:46;100282.41;;;-2.42;68.82
46448;BME280;32145;50.390;30.778;2023-01-28T14:49:42;100283.09;;;-2.50;68.55
46448;BME280;32145;50.390;30.778;2023-01-28T14:52:50;100280.44;;;-2.60;69.38
46448;BME280;32145;50.390;30.778;2023-01-28T14:55:43;100277.50;;;-2.66;69.45
46448;BME280;32145;50.390;30.778;2023-01-28T14:58:36;100282.34;;;-2.72;69.24
46448;BME280;32145;50.390;30.778;2023-01-28T15:01:24;100293.81;;;-2.81;70.16
46448;BME280;32145;50.390;30.778;2023-01-28T15:04:23;100285.69;;;-2.89;69.38
46448;BME280;32145;50.390;30.778;2023-01-28T15:07:19;100290.97;;;-2.99;70.10
46448;BME280;32145;50.390;30.778;2023-01-28T15:10:05;100289.25;;;-3.10;69.70
46448;BME280;32145;50.390;30.778;2023-01-28T15:12:52;100288.91;;;-3.17;70.26
46448;BME280;32145;50.390;30.778;2023-01-28T15:15:41;100299.94;;;-3.21;71.03
46448;BME280;32145;50.390;30.778;2023-01-28T15:18:31;100294.31;;;-3.28;70.65
46448;BME280;32145;50.390;30.778;2023-01-28T15:21:20;100296.66;;;-3.35;70.57
46448;BME280;32145;50.390;30.778;2023-01-28T15:24:09;100292.03;;;-3.43;70.88
46448;BME280;32145;50.390;30.778;2023-01-28T15:26:55;100298.69;;;-3.48;71.00
46448;BME280;32145;50.390;30.778;2023-01-28T15:29:39;100294.88;;;-3.56;71.36
46448;BME280;32145;50.390;30.778;2023-01-28T15:32:25;100292.06;;;-3.64;71.61
46448;BME280;32145;50.390;30.778;2023-01-28T15:35:10;100298.84;;;-3.71;71.49
46448;BME280;32145;50.390;30.778;2023-01-28T15:37:56;100295.88;;;-3.78;71.68
46448;BME280;32145;50.390;30.778;2023-01-28T15:40:42;100295.56;;;-3.85;71.86
46448;BME280;32145;50.390;30.778;2023-01-28T15:43:28;100301.34;;;-3.91;71.87
46448;BME280;32145;50.390;30.778;2023-01-28T15:46:13;100298.25;;;-3.96;72.14
46448;BME280;32145;50.390;30.778;2023-01-28T15:48:59;100294.19;;;-4.01;72.38
46448;BME280;32145;50.390;30.778;2023-01-28T15:51:48;100297.22;;;-4.05;72.65
46448;BME280;32145;50.390;30.778;2023-01-28T15:54:37;100302.88;;;-4.10;72.51
46448;BME280;32145;50.390;30.778;2023-01-28T15:57:27;100300.63;;;-4.15;72.47
46448;BME280;32145;50.390;30.778;2023-01-28T16:00:14;100298.59;;;-4.22;72.53
46448;BME280;32145;50.390;30.778;2023-01-28T16:03:06;100295.50;;;-4.28;72.48
46448;BME280;32145;50.390;30.778;2023-01-28T16:05:59;100295.75;;;-4.31;72.75
46448;BME280;32145;50.390;30.778;2023-01-28T16:08:49;100306.47;;;-4.32;73.01
46448;BME280;32145;50.390;30.778;2023-01-28T16:11:37;100304.06;;;-4.35;73.29
46448;BME280;32145;50.390;30.778;2023-01-28T16:14:24;100308.66;;;-4.37;73.56
46448;BME280;32145;50.390;30.778;2023-01-28T16:17:14;100307.94;;;-4.40;73.27
46448;BME280;32145;50.390;30.778;2023-01-28T16:20:01;100308.06;;;-4.41;73.32
46448;BME280;32145;50.390;30.778;2023-01-28T16:22:46;100307.47;;;-4.45;73.44
46448;BME280;32145;50.390;30.778;2023-01-28T16:25:32;100306.88;;;-4.48;73.52
46448;BME280;32145;50.390;30.778;2023-01-28T16:28:18;100308.09;;;-4.53;73.82
46448;BME280;32145;50.390;30.778;2023-01-28T16:31:05;100310.03;;;-4.55;73.62
46448;BME280;32145;50.390;30.778;2023-01-28T16:33:49;100311.22;;;-4.59;73.74
46448;BME280;32145;50.390;30.778;2023-01-28T16:36:36;100314.25;;;-4.63;73.83
46448;BME280;32145;50.390;30.778;2023-01-28T16:39:20;100310.28;;;-4.69;73.68
46448;BME280;32145;50.390;30.778;2023-01-28T16:42:04;100314.88;;;-4.71;74.05
46448;BME280;32145;50.390;30.778;2023-01-28T16:44:49;100315.09;;;-4.74;74.05
46448;BME280;32145;50.390;30.778;2023-01-28T16:47:33;100323.28;;;-4.78;74.24
46448;BME280;32145;50.390;30.778;2023-01-28T16:50:18;100320.91;;;-4.81;73.98
46448;BME280;32145;50.390;30.778;2023-01-28T16:53:02;100321.16;;;-4.84;74.34
46448;BME280;32145;50.390;30.778;2023-01-28T16:55:48;100318.75;;;-4.87;74.32
46448;BME280;32145;50.390;30.778;2023-01-28T16:58:32;100319.94;;;-4.91;74.54
46448;BME280;32145;50.390;30.778;2023-01-28T17:01:18;100314.88;;;-4.94;74.66
46448;BME280;32145;50.390;30.778;2023-01-28T17:04:02;100317.66;;;-4.96;74.76
46448;BME280;32145;50.390;30.778;2023-01-28T17:06:47;100315.13;;;-4.97;74.74
46448;BME280;32145;50.390;30.778;2023-01-28T17:09:31;100312.75;;;-5.00;75.08
46448;BME280;32145;50.390;30.778;2023-01-28T17:12:15;100313.97;;;-5.05;75.04
46448;BME280;32145;50.390;30.778;2023-01-28T17:14:59;100322.81;;;-5.06;74.97
46448;BME280;32145;50.390;30.778;2023-01-28T17:17:46;100315.75;;;-5.05;75.18
46448;BME280;32145;50.390;30.778;2023-01-28T17:20:30;100313.81;;;-5.03;75.43
46448;BME280;32145;50.390;30.778;2023-01-28T17:23:17;100323.69;;;-5.05;75.24
46448;BME280;32145;50.390;30.778;2023-01-28T17:26:05;100317.81;;;-5.09;74.96
46448;BME280;32145;50.390;30.778;2023-01-28T17:28:53;100323.31;;;-5.12;75.44
46448;BME280;32145;50.390;30.778;2023-01-28T17:31:37;100317.31;;;-5.14;75.43
46448;BME280;32145;50.390;30.778;2023-01-28T17:34:22;100316.59;;;-5.16;75.76
46448;BME280;32145;50.390;30.778;2023-01-28T17:37:06;100320.06;;;-5.15;75.42
46448;BME280;32145;50.390;30.778;2023-01-28T17:39:51;100318.97;;;-5.13;75.80
46448;BME280;32145;50.390;30.778;2023-01-28T17:42:36;100315.63;;;-5.03;76.00
46448;BME280;32145;50.390;30.778;2023-01-28T17:45:20;100321.84;;;-4.93;76.27
46448;BME280;32145;50.390;30.778;2023-01-28T17:48:04;100316.44;;;-4.92;75.89
46448;BME280;32145;50.390;30.778;2023-01-28T17:50:54;100327.16;;;-4.93;76.19
46448;BME280;32145;50.390;30.778;2023-01-28T17:53:39;100324.03;;;-4.98;76.22
46448;BME280;32145;50.390;30.778;2023-01-28T17:56:28;100319.25;;;-5.05;76.01
46448;BME280;32145;50.390;30.778;2023-01-28T17:59:12;100322.25;;;-5.09;76.08
46448;BME280;32145;50.390;30.778;2023-01-28T18:01:56;100322.72;;;-5.15;75.97
46448;BME280;32145;50.390;30.778;2023-01-28T18:04:41;100328.25;;;-5.19;76.28
46448;BME280;32145;50.390;30.778;2023-01-28T18:07:26;100319.00;;;-5.24;76.05
46448;BME280;32145;50.390;30.778;2023-01-28T18:10:11;100317.69;;;-5.30;76.46
46448;BME280;32145;50.390;30.778;2023-01-28T18:12:55;100312.75;;;-5.35;76.23
46448;BME280;32145;50.390;30.778;2023-01-28T18:15:39;100323.53;;;-5.38;76.59
46448;BME280;32145;50.390;30.778;2023-01-28T18:18:34;100317.66;;;-5.41;76.48
46448;BME280;32145;50.390;30.778;2023-01-28T18:21:29;100323.19;;;-5.45;76.24
46448;BME280;32145;50.390;30.778;2023-01-28T18:24:14;100317.31;;;-5.48;76.49
46448;BME280;32145;50.390;30.778;2023-01-28T18:26:59;100323.63;;;-5.51;76.62
46448;BME280;32145;50.390;30.778;2023-01-28T18:29:46;100322.06;;;-5.53;76.88
46448;BME280;32145;50.390;30.778;2023-01-28T18:32:30;100320.50;;;-5.56;77.02
46448;BME280;32145;50.390;30.778;2023-01-28T18:35:14;100321.59;;;-5.59;76.80
46448;BME280;32145;50.390;30.778;2023-01-28T18:37:58;100324.34;;;-5.60;77.03
46448;BME280;32145;50.390;30.778;2023-01-28T18:40:47;100321.81;;;-5.62;76.64
46448;BME280;32145;50.390;30.778;2023-01-28T18:43:31;100335.66;;;-5.58;77.26
46448;BME280;32145;50.390;30.778;2023-01-28T18:46:16;100340.56;;;-5.53;77.40
46448;BME280;32145;50.390;30.778;2023-01-28T18:49:01;100333.63;;;-5.43;77.46
46448;BME280;32145;50.390;30.778;2023-01-28T18:51:45;100334.13;;;-5.38;77.54
46448;BME280;32145;50.390;30.778;2023-01-28T18:54:29;100335.56;;;-5.34;77.73
46448;BME280;32145;50.390;30.778;2023-01-28T18:57:15;100331.72;;;-5.30;77.86
46448;BME280;32145;50.390;30.778;2023-01-28T18:59:58;100332.81;;;-5.32;78.02
46448;BME280;32145;50.390;30.778;2023-01-28T19:02:43;100338.94;;;-5.32;77.39
46448;BME280;32145;50.390;30.778;2023-01-28T19:05:27;100341.34;;;-5.28;77.76
46448;BME280;32145;50.390;30.778;2023-01-28T19:08:11;100328.72;;;-5.25;77.86
46448;BME280;32145;50.390;30.778;2023-01-28T19:10:58;100331.03;;;-5.20;77.88
46448;BME280;32145;50.390;30.778;2023-01-28T19:13:43;100334.25;;;-5.17;78.03
46448;BME280;32145;50.390;30.778;2023-01-28T19:16:27;100333.06;;;-5.12;77.47
46448;BME280;32145;50.390;30.778;2023-01-28T19:19:11;100329.09;;;-5.07;77.66
46448;BME280;32145;50.390;30.778;2023-01-28T19:21:55;100330.19;;;-4.98;77.78
46448;BME280;32145;50.390;30.778;2023-01-28T19:24:39;100339.31;;;-4.90;77.79
46448;BME280;32145;50.390;30.778;2023-01-28T19:27:23;100334.72;;;-4.88;77.79
46448;BME280;32145;50.390;30.778;2023-01-28T19:30:09;100333.06;;;-4.89;77.70
46448;BME280;32145;50.390;30.778;2023-01-28T19:32:53;100336.53;;;-4.89;77.66
46448;BME280;32145;50.390;30.778;2023-01-28T19:35:37;100338.94;;;-4.86;77.79
46448;BME280;32145;50.390;30.778;2023-01-28T19:38:21;100344.09;;;-4.84;77.68
46448;BME280;32145;50.390;30.778;2023-01-28T19:41:06;100343.75;;;-4.80;77.70
46448;BME280;32145;50.390;30.778;2023-01-28T19:43:50;100338.34;;;-4.78;78.08
46448;BME280;32145;50.390;30.778;2023-01-28T19:46:36;100347.09;;;-4.78;78.28
46448;BME280;32145;50.390;30.778;2023-01-28T19:49:20;100348.81;;;-4.76;77.73
46448;BME280;32145;50.390;30.778;2023-01-28T19:52:07;100351.31;;;-4.75;77.70